Terminal Aerodrome Forecast
Issued by NWS

Home | Current Version | Previous Version | Text Only | Print | Product List | Glossary On
Versions: 1 2 3 4 5 6 7 8 9 10 11 12 13
000
FTUS43 KMQT 311100
TAFIWD
TAF
KIWD 311133Z 3112/0112 VRB03KT 5SM BR SKC
     FM311300 VRB04KT 6SM BR SKC
     FM311400 31008KT P6SM SKC
     FM010100 VRB03KT P6SM SKC
      AMD LTD TO CLD VIS AND WIND=

USA.gov is the U.S. government's official web portal to all federal, state and local government web resources and services.